Derby, Australia
Current Conditions -  °F | °C
As of 1:30 AM on Friday 31 Oct 2014 (Local Time) from YCIN Reporting Station
Clear Clear  
Wind Chill: 79°   Ceiling: Unl
Heat Index: 82°   Visibility: NA
Dew Point: 73°   Wind: 5mph
Humidity: 83%   Direction: 360°N
Pressure: 29.71"   Gusts: NA
Location:  17.37°S, 123.67°E
Report Text: YCIN 301730Z AUTO 36004KT //// // NCD 26/23 Q1006
Loading
Personal Weather Stations






























Interactive Weather Map
Tropical Storm Tracking
New forecast layout! Learn more

10-Day Weather Forecast

Advertisements
Track Severe Weather on mobile